La Isla, Colorado
Current Conditions -  °F | °C
As of 3:52 PM on Tuesday 27 Jan 2015 (Local Time) from KALS Reporting Station
Clear Clear  
Wind Chill: 52°   Ceiling: Unl
Heat Index: 52°   Visibility: 10mi
Dew Point: 21°   Wind: 3mph
Humidity: 30%   Direction: 150°SSE
Pressure: 30.25"   Gusts: NA
Location:  37.1816°N, 106.262°W
Report Text: KALS 272252Z AUTO 15003KT 10SM CLR 11/M06 A3025 RMK AO2 SLP248 T01111061
Loading
Personal Weather Stations






























Interactive Weather Map New forecast layout! Learn more

10-Day Weather Forecast

Advertisements
Track Severe Weather on mobile